createdAt,value
2022-09-17T00:01:47.369Z,2.03
2022-09-17T00:04:15.751Z,2.37
2022-09-17T00:06:44.165Z,2.03
2022-09-17T00:09:12.957Z,2.50
2022-09-17T00:11:43.721Z,2.30
2022-09-17T00:14:17.550Z,2.00
2022-09-17T00:16:49.147Z,2.70
2022-09-17T00:19:20.252Z,1.70
2022-09-17T00:21:48.751Z,1.77
2022-09-17T00:24:18.670Z,1.60
2022-09-17T00:26:47.932Z,2.53
2022-09-17T00:29:17.682Z,2.10
2022-09-17T00:31:46.277Z,2.20
2022-09-17T00:34:14.632Z,1.70
2022-09-17T00:36:43.265Z,2.13
2022-09-17T00:39:15.668Z,3.03
2022-09-17T00:41:44.815Z,2.20
2022-09-17T00:44:54.835Z,1.83
2022-09-17T00:47:31.212Z,1.50
2022-09-17T00:50:05.154Z,2.03
2022-09-17T00:52:40.384Z,1.90
2022-09-17T00:55:15.203Z,1.93
2022-09-17T00:57:45.971Z,1.50
2022-09-17T01:00:17.311Z,3.03
2022-09-17T01:02:46.248Z,2.30
2022-09-17T01:05:15.287Z,1.80
2022-09-17T01:08:00.219Z,2.27
2022-09-17T01:11:03.122Z,2.17
2022-09-17T01:13:44.596Z,2.23
2022-09-17T01:16:22.085Z,2.10
2022-09-17T01:19:06.581Z,2.07
2022-09-17T01:21:52.164Z,1.73
2022-09-17T01:25:09.460Z,2.10
2022-09-17T01:28:18.898Z,1.73
2022-09-17T01:31:37.304Z,1.97
2022-09-17T01:34:15.714Z,1.80
2022-09-17T01:36:56.614Z,1.70
2022-09-17T01:39:36.467Z,1.57
2022-09-17T01:42:17.112Z,1.67
2022-09-17T01:44:54.948Z,1.30
2022-09-17T01:47:29.161Z,1.60
2022-09-17T01:50:02.974Z,1.53
2022-09-17T01:52:34.324Z,2.20
2022-09-17T01:55:07.060Z,1.70
2022-09-17T01:57:41.930Z,2.03
2022-09-17T02:00:13.838Z,1.77
2022-09-17T02:02:49.009Z,1.33
2022-09-17T02:05:22.286Z,1.40
2022-09-17T02:07:55.767Z,2.07
2022-09-17T02:10:28.188Z,2.00
2022-09-17T02:13:02.174Z,1.30
2022-09-17T02:15:36.099Z,1.70
2022-09-17T02:18:12.840Z,2.00
2022-09-17T02:20:46.206Z,1.40
2022-09-17T02:23:19.734Z,2.00
2022-09-17T02:25:54.374Z,1.53
2022-09-17T02:28:29.062Z,1.73
2022-09-17T02:30:57.507Z,2.00
2022-09-17T02:33:28.957Z,1.60
2022-09-17T02:35:57.437Z,1.80
2022-09-17T02:38:28.040Z,1.70
2022-09-17T02:41:07.487Z,2.20
2022-09-17T02:43:43.251Z,1.97
2022-09-17T02:46:35.180Z,1.90
2022-09-17T02:49:21.515Z,1.90
2022-09-17T02:52:02.366Z,1.97
2022-09-17T02:54:40.027Z,1.43
2022-09-17T02:57:17.181Z,1.87
2022-09-17T02:59:53.951Z,1.60
2022-09-17T03:02:26.504Z,2.00
2022-09-17T03:04:57.644Z,2.00
2022-09-17T03:07:29.198Z,1.63
2022-09-17T03:09:58.010Z,1.83
2022-09-17T03:12:26.860Z,1.27
2022-09-17T03:14:55.136Z,2.10
2022-09-17T03:17:23.622Z,1.80
2022-09-17T03:19:51.992Z,1.67
2022-09-17T03:22:21.745Z,1.80
2022-09-17T03:24:50.139Z,1.60
2022-09-17T03:27:18.573Z,1.60
2022-09-17T03:29:46.948Z,1.90
2022-09-17T03:32:15.440Z,1.70
2022-09-17T03:34:43.793Z,1.87
2022-09-17T03:37:12.083Z,2.37
2022-09-17T03:39:41.794Z,1.90
2022-09-17T03:42:10.167Z,2.00
2022-09-17T03:44:41.371Z,1.90
2022-09-17T03:47:12.572Z,2.23
2022-09-17T03:49:40.927Z,1.90
2022-09-17T03:52:09.316Z,3.53
2022-09-17T03:54:37.644Z,2.73
2022-09-17T03:57:07.395Z,2.00
2022-09-17T03:59:35.709Z,1.90
2022-09-17T04:02:04.163Z,2.30
2022-09-17T04:04:32.605Z,2.37
2022-09-17T04:07:01.072Z,2.13
2022-09-17T04:09:30.036Z,2.20
2022-09-17T04:11:58.626Z,1.83
2022-09-17T04:14:28.393Z,2.50
2022-09-17T04:16:56.785Z,2.30
2022-09-17T04:19:25.067Z,2.50
2022-09-17T04:21:53.852Z,2.73
2022-09-17T04:24:22.136Z,2.33
2022-09-17T04:26:50.528Z,2.33
2022-09-17T04:29:18.848Z,2.40
2022-09-17T04:31:48.509Z,2.20
2022-09-17T04:34:16.902Z,2.80
2022-09-17T04:36:45.245Z,2.73
2022-09-17T04:39:13.732Z,3.33
2022-09-17T04:41:42.162Z,2.80
2022-09-17T04:44:10.489Z,3.20
2022-09-17T04:46:38.919Z,2.67
2022-09-17T04:49:08.837Z,3.13
2022-09-17T04:51:37.236Z,2.40
2022-09-17T04:54:06.104Z,2.63
2022-09-17T04:56:34.496Z,3.00
2022-09-17T04:59:02.871Z,2.77
2022-09-17T05:01:31.228Z,2.30
2022-09-17T05:03:59.637Z,2.30
2022-09-17T05:06:29.454Z,2.37
2022-09-17T05:08:57.788Z,2.10
2022-09-17T05:11:26.197Z,2.23
2022-09-17T05:13:54.569Z,2.50
2022-09-17T05:16:23.105Z,2.33
2022-09-17T05:18:51.802Z,2.80
2022-09-17T05:21:20.572Z,1.93
2022-09-17T05:23:50.477Z,2.40
2022-09-17T05:26:18.891Z,2.10
2022-09-17T05:28:47.457Z,2.87
2022-09-17T05:31:15.767Z,3.67
2022-09-17T05:33:44.080Z,2.77
2022-09-17T05:36:12.603Z,3.53
2022-09-17T05:38:40.918Z,2.80
2022-09-17T05:41:10.719Z,2.97
2022-09-17T05:43:39.069Z,2.57
2022-09-17T05:46:07.779Z,4.13
2022-09-17T05:48:36.682Z,2.43
2022-09-17T05:51:05.308Z,3.17
2022-09-17T05:53:33.685Z,3.20
2022-09-17T05:56:02.443Z,3.30
2022-09-17T05:58:34.442Z,3.10
2022-09-17T06:01:02.913Z,3.13
2022-09-17T06:03:31.474Z,3.73
2022-09-17T06:06:01.716Z,2.87
2022-09-17T06:08:30.964Z,3.50
2022-09-17T06:11:02.506Z,3.07
2022-09-17T06:13:40.660Z,3.87
2022-09-17T06:16:09.178Z,3.87
2022-09-17T06:18:37.546Z,3.10
2022-09-17T06:21:06.660Z,4.50
2022-09-17T06:23:37.177Z,3.80
2022-09-17T06:26:07.067Z,4.17
2022-09-17T06:28:41.454Z,4.07
2022-09-17T06:31:12.615Z,4.57
2022-09-17T06:33:41.374Z,4.43
2022-09-17T06:36:14.644Z,4.23
2022-09-17T06:38:43.731Z,4.40
2022-09-17T06:41:12.482Z,4.70
2022-09-17T06:43:42.183Z,5.00
2022-09-17T06:46:11.796Z,6.80
2022-09-17T06:48:40.325Z,5.47
2022-09-17T06:51:11.890Z,4.70
2022-09-17T06:53:41.018Z,5.43
2022-09-17T06:56:10.776Z,5.27
2022-09-17T06:58:41.957Z,5.83
2022-09-17T07:01:11.536Z,5.60
2022-09-17T07:03:42.790Z,5.73
2022-09-17T07:06:12.700Z,5.90
2022-09-17T07:08:41.912Z,6.73
2022-09-17T07:11:10.317Z,5.00
2022-09-17T07:13:38.665Z,5.70
2022-09-17T07:16:08.864Z,6.00
2022-09-17T07:18:37.253Z,4.87
2022-09-17T07:21:07.850Z,5.93
2022-09-17T07:23:37.963Z,5.27
2022-09-17T07:26:09.227Z,5.80
2022-09-17T07:28:40.711Z,5.10
2022-09-17T07:31:15.840Z,5.03
2022-09-17T07:33:45.760Z,5.03
2022-09-17T07:36:17.875Z,4.00
2022-09-17T07:38:47.191Z,4.47
2022-09-17T07:41:17.800Z,4.70
2022-09-17T07:43:46.895Z,4.10
2022-09-17T07:46:19.212Z,3.80
2022-09-17T07:48:47.853Z,4.27
2022-09-17T07:51:18.143Z,3.60
2022-09-17T07:53:47.701Z,3.90
2022-09-17T07:56:16.276Z,4.00
2022-09-17T07:58:44.641Z,3.50
2022-09-17T08:01:15.377Z,4.80
2022-09-17T08:03:49.628Z,3.97
2022-09-17T08:06:20.803Z,3.40
2022-09-17T08:08:50.386Z,3.60
2022-09-17T08:11:44.663Z,3.60
2022-09-17T08:14:13.782Z,4.60
2022-09-17T08:16:42.293Z,4.03
2022-09-17T08:19:12.082Z,3.70
2022-09-17T08:21:40.548Z,3.77
2022-09-17T08:24:09.107Z,4.00
2022-09-17T08:26:38.422Z,4.00
2022-09-17T08:29:07.375Z,4.27
2022-09-17T08:31:35.852Z,3.73
2022-09-17T08:34:08.631Z,4.63
2022-09-17T08:36:38.726Z,4.10
2022-09-17T08:39:07.399Z,4.07
2022-09-17T08:41:50.738Z,3.70
2022-09-17T08:44:27.684Z,3.17
2022-09-17T08:47:02.261Z,3.20
2022-09-17T08:49:35.955Z,3.00
2022-09-17T08:53:04.349Z,2.40
2022-09-17T08:55:41.802Z,2.30
2022-09-17T08:58:43.261Z,2.80
2022-09-17T09:01:32.183Z,3.13
2022-09-17T09:04:56.677Z,2.50
2022-09-17T09:07:29.225Z,2.00
2022-09-17T09:10:11.815Z,2.07
2022-09-17T09:12:43.877Z,2.57
2022-09-17T09:15:31.181Z,2.33
2022-09-17T09:18:04.487Z,3.03
2022-09-17T09:20:45.205Z,2.37
2022-09-17T09:23:21.613Z,4.00
2022-09-17T09:26:05.564Z,2.53
2022-09-17T09:28:45.236Z,2.97
2022-09-17T09:31:29.172Z,2.87
2022-09-17T09:33:58.943Z,2.87
2022-09-17T09:36:31.562Z,3.33
2022-09-17T09:39:04.419Z,3.00
2022-09-17T09:41:40.488Z,3.03
2022-09-17T09:44:14.400Z,3.13
2022-09-17T09:47:19.310Z,2.10
2022-09-17T09:50:16.596Z,2.03
2022-09-17T09:52:59.846Z,2.27
2022-09-17T09:55:49.482Z,1.93
2022-09-17T09:58:27.798Z,2.30
2022-09-17T10:00:57.690Z,2.17
2022-09-17T10:03:32.155Z,3.10
2022-09-17T10:06:03.229Z,2.30
2022-09-17T10:08:34.877Z,2.20
2022-09-17T10:11:06.373Z,2.27
2022-09-17T10:13:36.678Z,1.63
2022-09-17T10:16:21.671Z,2.13
2022-09-17T10:18:56.994Z,2.10
2022-09-17T10:21:33.910Z,2.23
2022-09-17T10:24:04.900Z,5.73
2022-09-17T10:26:36.948Z,2.50
2022-09-17T10:29:07.524Z,2.33
2022-09-17T10:31:50.086Z,1.70
2022-09-17T10:34:24.506Z,1.60
2022-09-17T10:36:53.466Z,2.83
2022-09-17T10:39:36.571Z,2.80
2022-09-17T10:42:07.384Z,2.40
2022-09-17T10:44:37.651Z,3.20
2022-09-17T10:47:15.091Z,1.67
2022-09-17T10:49:47.580Z,2.70
2022-09-17T10:52:26.182Z,3.83
2022-09-17T10:55:23.816Z,2.37
2022-09-17T10:58:14.690Z,2.30
2022-09-17T11:01:03.900Z,2.30
2022-09-17T11:04:21.874Z,2.23
2022-09-17T11:07:13.388Z,2.97
2022-09-17T11:09:54.584Z,2.07
2022-09-17T11:12:38.125Z,1.47
2022-09-17T11:15:25.007Z,2.20
2022-09-17T11:18:26.076Z,2.03
2022-09-17T11:21:29.979Z,1.80
2022-09-17T11:24:44.772Z,1.67
2022-09-17T11:27:31.320Z,2.10
2022-09-17T11:30:19.204Z,2.07
2022-09-17T11:33:13.272Z,2.73
2022-09-17T11:35:48.020Z,1.67
2022-09-17T11:38:25.199Z,2.40
2022-09-17T11:41:02.798Z,1.57
2022-09-17T11:43:34.766Z,1.30
2022-09-17T11:46:09.813Z,1.57
2022-09-17T11:48:46.690Z,1.50
2022-09-17T11:51:29.244Z,1.20
2022-09-17T11:54:06.882Z,1.20
2022-09-17T11:56:40.211Z,1.70
2022-09-17T11:59:22.270Z,1.23
2022-09-17T12:01:58.706Z,1.70
2022-09-17T12:04:45.699Z,1.00
2022-09-17T12:07:33.502Z,1.53
2022-09-17T12:10:21.738Z,1.53
2022-09-17T12:12:56.777Z,1.77
2022-09-17T12:15:29.135Z,1.67
2022-09-17T12:18:31.599Z,1.67
2022-09-17T12:21:04.800Z,1.20
2022-09-17T12:23:39.713Z,1.67
2022-09-17T12:26:29.431Z,1.13
2022-09-17T12:29:07.766Z,1.30
2022-09-17T12:31:51.287Z,1.30
2022-09-17T12:34:32.723Z,1.10
2022-09-17T12:37:10.057Z,1.63
2022-09-17T12:39:59.493Z,1.23
2022-09-17T12:43:01.082Z,1.33
2022-09-17T12:45:50.750Z,1.33
2022-09-17T12:49:02.266Z,1.00
2022-09-17T12:51:54.210Z,2.13
2022-09-17T12:54:58.524Z,1.17
2022-09-17T12:57:41.759Z,1.23
2022-09-17T13:00:13.755Z,1.60
2022-09-17T13:02:47.502Z,1.40
2022-09-17T13:05:42.550Z,1.50
2022-09-17T13:08:36.818Z,1.23
2022-09-17T13:11:41.287Z,1.07
2022-09-17T13:14:24.416Z,1.17
2022-09-17T13:16:59.155Z,1.43
2022-09-17T13:19:38.052Z,1.00
2022-09-17T13:22:23.767Z,1.10
2022-09-17T13:25:13.799Z,1.07
2022-09-17T13:27:43.251Z,0.87
2022-09-17T13:31:04.354Z,0.90
2022-09-17T13:34:40.251Z,1.23
2022-09-17T13:37:20.842Z,1.43
2022-09-17T13:39:58.913Z,0.90
2022-09-17T13:42:35.395Z,0.90
2022-09-17T13:45:34.507Z,1.43
2022-09-17T13:48:25.975Z,3.20
2022-09-17T13:51:48.206Z,0.93
2022-09-17T13:54:41.655Z,0.80
2022-09-17T13:57:14.681Z,1.10
2022-09-17T13:59:59.383Z,1.00
2022-09-17T14:02:37.398Z,0.90
2022-09-17T14:05:40.476Z,0.70
2022-09-17T14:08:31.576Z,1.10
2022-09-17T14:11:03.626Z,0.60
2022-09-17T14:13:45.972Z,0.90
2022-09-17T14:16:48.216Z,0.70
2022-09-17T14:19:28.902Z,1.37
2022-09-17T14:22:02.398Z,1.60
2022-09-17T14:24:38.415Z,1.40
2022-09-17T14:27:15.347Z,1.43
2022-09-17T14:30:07.869Z,1.57
2022-09-17T14:32:43.303Z,1.10
2022-09-17T14:35:20.644Z,0.67
2022-09-17T14:37:55.992Z,0.60
2022-09-17T14:40:26.158Z,0.90
2022-09-17T14:42:57.919Z,0.90
2022-09-17T14:45:30.973Z,1.10
2022-09-17T14:48:37.125Z,0.90
2022-09-17T14:51:29.603Z,0.67
2022-09-17T14:54:25.008Z,1.07
2022-09-17T14:56:57.675Z,0.97
2022-09-17T14:59:51.135Z,0.90
2022-09-17T15:02:38.115Z,0.77
2022-09-17T15:05:20.502Z,0.90
2022-09-17T15:07:49.479Z,0.83
2022-09-17T15:10:22.288Z,1.50
2022-09-17T15:12:52.698Z,1.17
2022-09-17T15:15:24.642Z,1.50
2022-09-17T15:17:54.269Z,2.93
2022-09-17T15:20:25.633Z,1.80
2022-09-17T15:23:06.178Z,0.80
2022-09-17T15:25:38.001Z,0.70
2022-09-17T15:28:18.385Z,0.73
2022-09-17T15:30:51.604Z,0.70
2022-09-17T15:33:20.476Z,0.80
2022-09-17T15:36:02.988Z,1.20
2022-09-17T15:38:33.027Z,0.70
2022-09-17T15:41:31.178Z,0.90
2022-09-17T15:44:36.834Z,1.00
2022-09-17T15:47:50.469Z,1.27
2022-09-17T15:50:22.000Z,1.30
2022-09-17T15:52:51.654Z,0.63
2022-09-17T15:55:38.261Z,0.63
2022-09-17T15:58:24.901Z,1.07
2022-09-17T16:01:53.625Z,1.10
2022-09-17T16:04:28.793Z,0.50
2022-09-17T16:07:29.907Z,0.80
2022-09-17T16:09:59.459Z,0.60
2022-09-17T16:12:30.134Z,0.63
2022-09-17T16:15:01.879Z,0.70
2022-09-17T16:17:44.419Z,0.67
2022-09-17T16:20:19.909Z,0.83
2022-09-17T16:22:49.060Z,0.73
2022-09-17T16:25:18.668Z,0.57
2022-09-17T16:27:52.524Z,0.90
2022-09-17T16:30:24.369Z,0.80
2022-09-17T16:32:53.876Z,0.90
2022-09-17T16:35:25.853Z,1.13
2022-09-17T16:37:57.152Z,0.63
2022-09-17T16:40:29.220Z,0.90
2022-09-17T16:43:01.209Z,1.20
2022-09-17T16:45:32.153Z,0.80
2022-09-17T16:48:00.608Z,0.80
2022-09-17T16:50:29.697Z,1.33
2022-09-17T16:53:02.769Z,1.40
2022-09-17T16:55:33.293Z,1.10
2022-09-17T16:58:01.791Z,1.47
2022-09-17T17:00:31.896Z,1.07
2022-09-17T17:03:00.541Z,1.23
2022-09-17T17:05:29.173Z,1.60
2022-09-17T17:07:58.114Z,0.80
2022-09-17T17:10:27.699Z,1.17
2022-09-17T17:12:56.302Z,0.73
2022-09-17T17:15:25.452Z,0.97
2022-09-17T17:17:55.718Z,1.33
2022-09-17T17:20:24.892Z,1.40
2022-09-17T17:22:53.342Z,0.83
2022-09-17T17:25:23.684Z,1.57
2022-09-17T17:27:52.502Z,1.07
2022-09-17T17:30:21.019Z,1.67
2022-09-17T17:32:52.528Z,1.13
2022-09-17T17:35:22.323Z,0.90
2022-09-17T17:37:50.778Z,1.10
2022-09-17T17:40:19.401Z,0.90
2022-09-17T17:42:53.709Z,1.20
2022-09-17T17:45:22.139Z,0.93
2022-09-17T17:47:50.579Z,1.00
2022-09-17T17:50:19.007Z,0.73
2022-09-17T17:52:49.145Z,1.13
2022-09-17T17:55:18.123Z,1.20
2022-09-17T17:57:46.559Z,1.40
2022-09-17T18:00:16.900Z,2.30
2022-09-17T18:02:45.357Z,1.80
2022-09-17T18:05:14.200Z,1.40
2022-09-17T18:07:42.630Z,1.07
2022-09-17T18:10:13.167Z,1.57
2022-09-17T18:12:41.766Z,0.93
2022-09-17T18:15:11.075Z,1.40
2022-09-17T18:17:39.520Z,1.10
2022-09-17T18:20:09.471Z,1.50
2022-09-17T18:22:38.192Z,1.70
2022-09-17T18:25:13.779Z,1.40
2022-09-17T18:27:42.294Z,1.30
2022-09-17T18:30:14.714Z,1.37
2022-09-17T18:32:43.469Z,1.77
2022-09-17T18:35:16.406Z,1.13
2022-09-17T18:37:44.800Z,1.20
2022-09-17T18:40:14.576Z,1.40
2022-09-17T18:42:50.424Z,2.80
2022-09-17T18:45:24.298Z,2.50
2022-09-17T18:48:13.708Z,2.80
2022-09-17T18:53:51.607Z,3.63
2022-09-17T18:56:29.526Z,4.13
2022-09-17T18:59:10.367Z,3.53
2022-09-17T19:01:58.636Z,2.37
2022-09-17T19:04:31.802Z,2.20
2022-09-17T19:07:03.627Z,2.07
2022-09-17T19:09:35.233Z,2.10
2022-09-17T19:12:08.123Z,1.87
2022-09-17T19:14:36.577Z,1.50
2022-09-17T19:17:06.899Z,1.70
2022-09-17T19:19:43.616Z,2.47
2022-09-17T19:22:11.996Z,1.63
2022-09-17T19:24:40.492Z,2.00
2022-09-17T19:27:10.827Z,1.20
2022-09-17T19:29:39.335Z,1.47
2022-09-17T19:32:07.798Z,2.30
2022-09-17T19:34:36.153Z,1.77
2022-09-17T19:37:04.753Z,1.70
2022-09-17T19:39:35.658Z,2.10
2022-09-17T19:42:04.058Z,1.70
2022-09-17T19:44:34.743Z,1.40
2022-09-17T19:47:03.110Z,1.50
2022-09-17T19:49:31.697Z,2.33
2022-09-17T19:52:00.346Z,1.83
2022-09-17T19:54:28.778Z,1.57
2022-09-17T19:56:57.259Z,1.63
2022-09-17T19:59:26.043Z,2.17
2022-09-17T20:01:56.145Z,1.50
2022-09-17T20:04:24.701Z,1.83
2022-09-17T20:06:53.432Z,1.97
2022-09-17T20:09:22.198Z,2.13
2022-09-17T20:11:50.678Z,2.90
2022-09-17T20:14:19.489Z,2.87
2022-09-17T20:16:48.035Z,2.87
2022-09-17T20:19:18.377Z,2.00
2022-09-17T20:21:47.085Z,2.57
2022-09-17T20:24:15.605Z,2.87
2022-09-17T20:26:44.065Z,2.07
2022-09-17T20:29:12.408Z,2.13
2022-09-17T20:31:40.927Z,1.80
2022-09-17T20:34:10.757Z,1.73
2022-09-17T20:36:40.463Z,1.90
2022-09-17T20:39:14.310Z,2.70
2022-09-17T20:41:46.555Z,3.03
2022-09-17T20:44:14.851Z,2.43
2022-09-17T20:46:43.162Z,1.67
2022-09-17T20:49:11.481Z,1.60
2022-09-17T20:51:41.479Z,1.97
2022-09-17T20:54:11.282Z,2.73
2022-09-17T20:56:39.599Z,2.27
2022-09-17T20:59:14.397Z,2.47
2022-09-17T21:01:45.798Z,2.10
2022-09-17T21:04:18.986Z,2.00
2022-09-17T21:06:52.742Z,2.63
2022-09-17T21:09:21.381Z,2.10
2022-09-17T21:11:50.636Z,2.57
2022-09-17T21:14:20.624Z,2.80
2022-09-17T21:16:49.116Z,2.80
2022-09-17T21:19:17.526Z,3.20
2022-09-17T21:21:46.140Z,1.83
2022-09-17T21:24:15.865Z,1.67
2022-09-17T21:26:45.836Z,2.27
2022-09-17T21:29:14.321Z,2.23
2022-09-17T21:31:42.731Z,2.20
2022-09-17T21:34:13.734Z,2.67
2022-09-17T21:36:44.617Z,2.90
2022-09-17T21:39:16.195Z,1.73
2022-09-17T21:41:45.642Z,1.50
2022-09-17T21:44:14.313Z,2.00
2022-09-17T21:46:44.045Z,2.33
2022-09-17T21:49:13.832Z,2.60
2022-09-17T21:51:43.868Z,2.33
2022-09-17T21:54:16.872Z,2.73
2022-09-17T21:56:46.096Z,2.50
2022-09-17T21:59:16.485Z,2.93
2022-09-17T22:01:48.565Z,2.10
2022-09-17T22:04:20.000Z,2.30
2022-09-17T22:06:50.336Z,2.70
2022-09-17T22:09:23.021Z,2.10
2022-09-17T22:11:52.501Z,1.97
2022-09-17T22:14:23.220Z,1.70
2022-09-17T22:16:53.940Z,1.67
2022-09-17T22:19:24.121Z,2.43
2022-09-17T22:21:54.734Z,1.60
2022-09-17T22:24:25.472Z,1.80
2022-09-17T22:26:58.421Z,1.70
2022-09-17T22:29:31.424Z,1.90
2022-09-17T22:31:59.802Z,2.47
2022-09-17T22:34:29.650Z,2.30
2022-09-17T22:36:59.132Z,1.80
2022-09-17T22:39:29.054Z,1.97
2022-09-17T22:41:57.422Z,2.00
2022-09-17T22:44:25.734Z,1.87
2022-09-17T22:46:54.160Z,1.60
2022-09-17T22:49:22.773Z,1.73
2022-09-17T22:51:51.399Z,1.87
2022-09-17T22:54:20.661Z,2.87
2022-09-17T22:56:50.513Z,1.90
2022-09-17T22:59:19.214Z,1.90
2022-09-17T23:01:47.952Z,1.53
2022-09-17T23:04:16.364Z,2.27
2022-09-17T23:06:44.720Z,1.90
2022-09-17T23:09:14.429Z,1.70
2022-09-17T23:11:42.940Z,2.10
2022-09-17T23:14:14.647Z,2.60
2022-09-17T23:16:45.727Z,2.57
2022-09-17T23:19:15.519Z,1.70
2022-09-17T23:21:44.216Z,2.20
2022-09-17T23:24:18.875Z,2.27
2022-09-17T23:26:47.584Z,2.03
2022-09-17T23:29:17.548Z,2.07
2022-09-17T23:31:45.925Z,2.00
2022-09-17T23:34:14.314Z,1.90
2022-09-17T23:36:42.613Z,2.27
2022-09-17T23:39:13.241Z,2.10
2022-09-17T23:41:45.416Z,2.10
2022-09-17T23:44:15.770Z,1.63
2022-09-17T23:46:47.142Z,2.43
2022-09-17T23:49:16.713Z,2.33
2022-09-17T23:51:45.576Z,2.13
2022-09-17T23:54:13.880Z,2.00
2022-09-17T23:56:42.230Z,1.50
2022-09-17T23:59:11.824Z,1.90
